createdAt,value
2017-05-11T00:01:06.348Z,23.97
2017-05-11T00:03:34.614Z,19.47
2017-05-11T00:06:03.023Z,23.72
2017-05-11T00:08:31.298Z,18.58
2017-05-11T00:10:59.579Z,19.88
2017-05-11T00:13:27.869Z,20.15
2017-05-11T00:15:56.229Z,20.78
2017-05-11T00:18:24.493Z,18.32
2017-05-11T00:20:52.889Z,22.50
2017-05-11T00:23:21.168Z,19.57
2017-05-11T00:25:49.458Z,21.87
2017-05-11T00:28:18.429Z,24.57
2017-05-11T00:30:46.821Z,18.97
2017-05-11T00:33:15.104Z,22.50
2017-05-11T00:35:43.414Z,19.50
2017-05-11T00:38:11.674Z,21.32
2017-05-11T00:40:39.935Z,22.62
2017-05-11T00:43:08.232Z,22.68
2017-05-11T00:45:36.494Z,22.77
2017-05-11T00:48:04.803Z,24.38
2017-05-11T00:50:33.062Z,26.10
2017-05-11T00:53:01.323Z,23.53
2017-05-11T00:55:30.358Z,24.32
2017-05-11T00:57:58.623Z,26.18
2017-05-11T01:00:27.013Z,23.20
2017-05-11T01:02:55.270Z,24.75
2017-05-11T01:05:23.541Z,23.72
2017-05-11T01:07:51.839Z,22.82
2017-05-11T01:10:20.114Z,27.58
2017-05-11T01:12:49.119Z,23.62
2017-05-11T01:15:18.252Z,25.25
2017-05-11T01:17:46.521Z,24.98
2017-05-11T01:20:14.806Z,26.13
2017-05-11T01:22:43.297Z,26.87
2017-05-11T01:25:11.557Z,25.28
2017-05-11T01:27:39.853Z,23.65
2017-05-11T01:30:08.326Z,26.95
2017-05-11T01:32:36.586Z,27.87
2017-05-11T01:35:04.851Z,23.88
2017-05-11T01:37:33.158Z,25.92
2017-05-11T01:40:01.417Z,24.98
2017-05-11T01:42:29.677Z,24.77
2017-05-11T01:44:57.972Z,26.15
2017-05-11T01:47:26.267Z,27.23
2017-05-11T01:49:54.530Z,28.83
2017-05-11T01:52:23.067Z,24.17
2017-05-11T01:54:52.081Z,26.72
2017-05-11T01:57:20.368Z,23.60
2017-05-11T01:59:48.688Z,25.17
2017-05-11T02:02:16.963Z,25.17
2017-05-11T02:04:45.241Z,25.55
2017-05-11T02:07:13.547Z,25.20
2017-05-11T02:09:41.820Z,25.28
2017-05-11T02:12:10.123Z,26.82
2017-05-11T02:14:39.165Z,26.32
2017-05-11T02:17:07.440Z,29.58
2017-05-11T02:19:35.778Z,23.48
2017-05-11T02:22:04.060Z,26.90
2017-05-11T02:24:32.327Z,27.00
2017-05-11T02:27:01.388Z,27.90
2017-05-11T02:29:29.660Z,26.63
2017-05-11T02:31:58.029Z,27.73
2017-05-11T02:34:26.505Z,28.67
2017-05-11T02:36:54.780Z,26.60
2017-05-11T02:39:23.057Z,27.58
2017-05-11T02:41:51.541Z,27.33
2017-05-11T02:44:19.920Z,29.43
2017-05-11T02:46:48.205Z,29.60
2017-05-11T02:49:16.576Z,29.40
2017-05-11T02:51:44.853Z,30.67
2017-05-11T02:54:13.125Z,27.92
2017-05-11T02:56:41.539Z,31.25
2017-05-11T02:59:09.924Z,29.07
2017-05-11T03:01:38.196Z,32.35
2017-05-11T03:04:07.003Z,30.83
2017-05-11T03:06:35.279Z,28.75
2017-05-11T03:09:03.552Z,29.60
2017-05-11T03:11:31.870Z,29.80
2017-05-11T03:14:00.884Z,29.88
2017-05-11T03:16:29.161Z,34.82
2017-05-11T03:18:57.464Z,33.03
2017-05-11T03:21:25.759Z,30.95
2017-05-11T03:23:54.031Z,32.17
2017-05-11T03:26:22.338Z,31.18
2017-05-11T03:28:51.353Z,30.72
2017-05-11T03:31:19.628Z,34.65
2017-05-11T03:33:48.051Z,33.70
2017-05-11T03:36:16.326Z,31.92
2017-05-11T03:38:44.591Z,30.72
2017-05-11T03:41:12.997Z,32.03
2017-05-11T03:43:41.273Z,35.20
2017-05-11T03:46:09.544Z,32.78
2017-05-11T03:48:37.860Z,33.82
2017-05-11T03:51:06.871Z,32.10
2017-05-11T03:53:35.144Z,34.28
2017-05-11T03:56:03.462Z,34.35
2017-05-11T03:58:31.732Z,32.10
2017-05-11T04:01:00.005Z,34.25
2017-05-11T04:03:28.330Z,31.90
2017-05-11T04:05:57.360Z,31.93
2017-05-11T04:08:25.632Z,37.67
2017-05-11T04:10:53.932Z,34.08
2017-05-11T04:13:22.205Z,32.62
2017-05-11T04:15:50.476Z,32.10
2017-05-11T04:18:18.782Z,32.25
2017-05-11T04:20:47.057Z,37.00
2017-05-11T04:23:15.371Z,34.42
2017-05-11T04:25:44.384Z,30.37
2017-05-11T04:28:12.659Z,31.18
2017-05-11T04:30:41.277Z,29.73
2017-05-11T04:33:09.549Z,36.55
2017-05-11T04:35:37.823Z,31.38
2017-05-11T04:38:06.227Z,33.48
2017-05-11T04:40:34.512Z,30.62
2017-05-11T04:43:02.784Z,33.10
2017-05-11T04:45:31.187Z,31.35
2017-05-11T04:47:59.456Z,29.73
2017-05-11T04:50:27.728Z,30.60
2017-05-11T04:52:56.029Z,30.92
2017-05-11T04:55:24.303Z,28.25
2017-05-11T04:57:52.606Z,28.07
2017-05-11T05:00:21.648Z,28.12
2017-05-11T05:02:50.029Z,32.90
2017-05-11T05:05:18.412Z,27.90
2017-05-11T05:07:46.704Z,28.13
2017-05-11T05:10:15.064Z,30.87
2017-05-11T05:12:43.544Z,30.60
2017-05-11T05:15:11.923Z,33.18
2017-05-11T05:17:40.324Z,28.22
2017-05-11T05:20:08.683Z,27.95
2017-05-11T05:22:36.960Z,27.37
2017-05-11T05:25:05.341Z,30.73
2017-05-11T05:27:33.715Z,28.72
2017-05-11T05:30:01.987Z,26.35
2017-05-11T05:32:30.301Z,28.38
2017-05-11T05:34:58.776Z,26.02
2017-05-11T05:37:27.051Z,26.42
2017-05-11T05:39:55.328Z,27.72
2017-05-11T05:42:23.811Z,25.97
2017-05-11T05:44:52.088Z,28.82
2017-05-11T05:47:20.369Z,30.23
2017-05-11T05:49:48.817Z,27.02
2017-05-11T05:52:17.092Z,28.15
2017-05-11T05:54:45.363Z,26.62
2017-05-11T05:57:13.780Z,26.38
2017-05-11T05:59:42.051Z,24.68
2017-05-11T06:02:10.323Z,25.52
2017-05-11T06:04:38.640Z,28.00
2017-05-11T06:07:06.988Z,23.92
2017-05-11T06:09:35.368Z,24.58
2017-05-11T06:12:03.748Z,28.88
2017-05-11T06:14:32.129Z,28.83
2017-05-11T06:17:00.503Z,26.80
2017-05-11T06:19:28.880Z,23.33
2017-05-11T06:21:57.160Z,24.72
2017-05-11T06:24:25.432Z,23.70
2017-05-11T06:26:53.740Z,26.08
2017-05-11T06:29:22.095Z,25.68
2017-05-11T06:31:50.420Z,25.32
2017-05-11T06:34:19.464Z,26.02
2017-05-11T06:36:47.839Z,25.33
2017-05-11T06:39:16.171Z,22.70
2017-05-11T06:41:45.196Z,24.45
2017-05-11T06:44:13.467Z,22.43
2017-05-11T06:46:41.775Z,21.72
2017-05-11T06:49:10.052Z,21.10
2017-05-11T06:51:38.425Z,21.93
2017-05-11T06:54:06.747Z,24.35
2017-05-11T06:56:35.763Z,21.82
2017-05-11T06:59:04.039Z,21.47
2017-05-11T07:01:32.631Z,24.58
2017-05-11T07:04:00.939Z,21.22
2017-05-11T07:06:29.216Z,21.87
2017-05-11T07:08:57.520Z,17.45
2017-05-11T07:11:25.869Z,17.78
2017-05-11T07:13:54.172Z,17.93
2017-05-11T07:16:22.546Z,18.22
2017-05-11T07:18:50.849Z,17.70
2017-05-11T07:21:19.196Z,16.98
2017-05-11T07:23:47.578Z,16.08
2017-05-11T07:26:15.909Z,14.03
2017-05-11T07:28:44.952Z,14.55
2017-05-11T07:31:13.236Z,15.30
2017-05-11T07:33:41.559Z,11.38
2017-05-11T07:36:10.605Z,11.57
2017-05-11T07:38:38.980Z,9.68
2017-05-11T07:41:07.356Z,13.75
2017-05-11T07:43:35.637Z,11.37
2017-05-11T07:46:04.013Z,7.93
2017-05-11T07:48:32.316Z,9.08
2017-05-11T07:51:00.673Z,7.12
2017-05-11T07:53:28.979Z,6.93
2017-05-11T07:55:57.323Z,7.32
2017-05-11T07:58:25.704Z,5.27
2017-05-11T08:00:54.084Z,8.25
2017-05-11T08:03:22.466Z,5.20
2017-05-11T08:05:50.745Z,5.52
2017-05-11T08:08:19.064Z,5.20
2017-05-11T08:10:48.088Z,3.58
2017-05-11T08:13:16.364Z,3.28
2017-05-11T08:15:44.676Z,5.46
2017-05-11T08:18:13.207Z,2.97
2017-05-11T08:20:41.487Z,2.90
2017-05-11T08:23:09.810Z,4.37
2017-05-11T08:25:38.121Z,6.17
2017-05-11T08:28:07.134Z,2.74
2017-05-11T08:30:35.827Z,4.60
2017-05-11T08:33:04.239Z,3.84
2017-05-11T08:35:32.616Z,4.14
2017-05-11T08:38:01.000Z,4.76
2017-05-11T08:40:29.384Z,3.10
2017-05-11T08:42:57.757Z,3.30
2017-05-11T08:45:26.553Z,2.00
2017-05-11T08:47:54.924Z,2.80
2017-05-11T08:50:23.248Z,3.02
2017-05-11T08:52:52.351Z,3.04
2017-05-11T08:55:21.391Z,3.42
2017-05-11T08:57:49.674Z,3.38
2017-05-11T09:00:18.049Z,3.02
2017-05-11T09:02:46.348Z,3.60
2017-05-11T09:05:14.703Z,3.26
2017-05-11T09:07:42.977Z,3.90
2017-05-11T09:10:11.568Z,3.48
2017-05-11T09:12:39.869Z,3.72
2017-05-11T09:15:08.140Z,2.98
2017-05-11T09:17:36.448Z,3.66
2017-05-11T09:20:05.464Z,3.60
2017-05-11T09:22:33.869Z,3.48
2017-05-11T09:25:02.249Z,2.46
2017-05-11T09:27:30.528Z,4.12
2017-05-11T09:29:58.907Z,2.42
2017-05-11T09:32:27.276Z,3.82
2017-05-11T09:34:55.664Z,3.50
2017-05-11T09:37:24.045Z,3.02
2017-05-11T09:39:52.424Z,5.08
2017-05-11T09:42:20.705Z,3.42
2017-05-11T09:44:49.080Z,2.86
2017-05-11T09:47:17.407Z,3.96
2017-05-11T09:49:46.461Z,3.20
2017-05-11T09:52:14.740Z,3.54
2017-05-11T09:54:43.217Z,3.32
2017-05-11T09:57:11.593Z,2.84
2017-05-11T09:59:40.072Z,4.36
2017-05-11T10:02:08.352Z,3.40
2017-05-11T10:04:36.628Z,3.58
2017-05-11T10:07:04.955Z,3.50
2017-05-11T10:09:33.980Z,3.36
2017-05-11T10:12:02.283Z,3.54
2017-05-11T10:14:30.651Z,5.66
2017-05-11T10:16:58.932Z,3.86
2017-05-11T10:19:27.332Z,4.60
2017-05-11T10:21:55.639Z,3.82
2017-05-11T10:24:24.660Z,2.98
2017-05-11T10:26:53.060Z,3.08
2017-05-11T10:29:21.365Z,4.14
2017-05-11T10:31:49.713Z,2.94
2017-05-11T10:34:17.988Z,3.42
2017-05-11T10:36:46.367Z,3.40
2017-05-11T10:39:14.644Z,3.30
2017-05-11T10:41:42.928Z,3.00
2017-05-11T10:44:11.232Z,3.52
2017-05-11T10:46:39.579Z,3.10
2017-05-11T10:49:08.269Z,3.34
2017-05-11T10:51:36.653Z,3.56
2017-05-11T10:54:05.027Z,3.06
2017-05-11T10:56:33.348Z,3.98
2017-05-11T10:59:02.396Z,4.72
2017-05-11T11:01:30.668Z,4.22
2017-05-11T11:03:58.985Z,4.80
2017-05-11T11:06:27.260Z,5.58
2017-05-11T11:08:55.532Z,5.30
2017-05-11T11:11:23.856Z,3.30
2017-05-11T11:13:52.880Z,5.10
2017-05-11T11:16:21.148Z,3.44
2017-05-11T11:18:49.668Z,2.74
2017-05-11T11:21:17.944Z,3.28
2017-05-11T11:23:46.224Z,3.26
2017-05-11T11:26:14.543Z,2.48
2017-05-11T11:28:43.594Z,5.86
2017-05-11T11:31:11.864Z,2.36
2017-05-11T11:33:40.267Z,6.70
2017-05-11T11:36:08.629Z,3.10
2017-05-11T11:38:36.906Z,2.82
2017-05-11T11:41:05.217Z,2.62
2017-05-11T11:43:34.267Z,3.46
2017-05-11T11:46:02.572Z,2.60
2017-05-11T11:48:30.924Z,2.80
2017-05-11T11:50:59.316Z,2.76
2017-05-11T11:53:27.592Z,2.68
2017-05-11T11:55:55.896Z,3.74
2017-05-11T11:58:24.167Z,3.38
2017-05-11T12:00:52.439Z,4.98
2017-05-11T12:03:20.756Z,6.36
2017-05-11T12:05:49.952Z,4.34
2017-05-11T12:08:18.223Z,2.72
2017-05-11T12:10:46.570Z,3.20
2017-05-11T12:13:14.944Z,3.60
2017-05-11T12:15:43.321Z,3.84
2017-05-11T12:18:11.636Z,3.14
2017-05-11T12:20:39.912Z,3.98
2017-05-11T12:23:08.188Z,5.84
2017-05-11T12:25:36.504Z,3.98
2017-05-11T12:28:04.807Z,4.12
2017-05-11T12:30:33.183Z,5.16
2017-05-11T12:33:01.567Z,2.80
2017-05-11T12:35:29.836Z,3.12
2017-05-11T12:37:58.108Z,2.68
2017-05-11T12:40:26.599Z,3.04
2017-05-11T12:42:54.879Z,3.42
2017-05-11T12:45:23.147Z,2.88
2017-05-11T12:47:51.444Z,3.60
2017-05-11T12:50:19.811Z,2.52
2017-05-11T12:52:48.202Z,2.68
2017-05-11T12:55:16.476Z,2.94
2017-05-11T12:57:44.748Z,3.04
2017-05-11T13:00:13.111Z,5.08
2017-05-11T13:02:41.409Z,4.46
2017-05-11T13:05:09.716Z,2.66
2017-05-11T13:07:38.781Z,2.38
2017-05-11T13:10:07.262Z,2.50
2017-05-11T13:12:35.541Z,2.64
2017-05-11T13:15:03.822Z,2.26
2017-05-11T13:17:32.152Z,3.34
2017-05-11T13:20:00.429Z,2.62
2017-05-11T13:22:28.782Z,2.68
2017-05-11T13:24:57.097Z,2.42
2017-05-11T13:27:26.256Z,8.24
2017-05-11T13:29:54.540Z,6.04
2017-05-11T13:32:22.829Z,5.96
2017-05-11T13:34:51.713Z,8.72
2017-05-11T13:37:19.997Z,10.08
2017-05-11T13:39:48.280Z,6.50
2017-05-11T13:42:16.772Z,6.40
2017-05-11T13:44:45.132Z,3.00
2017-05-11T13:47:13.499Z,3.08
2017-05-11T13:49:41.825Z,5.26
2017-05-11T13:52:10.846Z,2.44
2017-05-11T13:54:39.127Z,2.50
2017-05-11T13:57:07.437Z,2.42
2017-05-11T13:59:37.852Z,3.16
2017-05-11T14:02:06.236Z,2.68
2017-05-11T14:04:34.579Z,3.72
2017-05-11T14:07:02.952Z,5.16
2017-05-11T14:09:31.378Z,7.06
2017-05-11T14:11:59.865Z,4.82
2017-05-11T14:14:29.421Z,2.60
2017-05-11T14:16:57.838Z,2.40
2017-05-11T14:19:26.145Z,2.28
2017-05-11T14:21:55.366Z,2.92
2017-05-11T14:24:23.689Z,2.94
2017-05-11T14:26:52.036Z,2.02
2017-05-11T14:29:20.438Z,2.82
2017-05-11T14:31:49.690Z,2.38
2017-05-11T14:34:18.086Z,3.04
2017-05-11T14:36:47.067Z,6.78
2017-05-11T14:39:15.557Z,3.30
2017-05-11T14:41:43.937Z,5.44
2017-05-11T14:44:12.417Z,13.38
2017-05-11T14:46:40.990Z,4.16
2017-05-11T14:49:09.575Z,2.54
2017-05-11T14:51:37.964Z,4.64
2017-05-11T14:54:06.338Z,2.58
2017-05-11T14:56:34.822Z,3.52
2017-05-11T14:59:03.412Z,2.18
2017-05-11T15:01:31.721Z,2.80
2017-05-11T15:04:01.071Z,2.22
2017-05-11T15:06:29.586Z,2.58
2017-05-11T15:08:58.788Z,2.54
2017-05-11T15:11:27.955Z,2.50
2017-05-11T15:13:56.540Z,3.80
2017-05-11T15:16:25.023Z,2.46
2017-05-11T15:18:53.608Z,2.50
2017-05-11T15:21:22.118Z,2.72
2017-05-11T15:23:51.412Z,2.30
2017-05-11T15:26:19.974Z,3.00
2017-05-11T15:28:48.498Z,3.56
2017-05-11T15:31:16.968Z,2.54
2017-05-11T15:33:45.521Z,3.52
2017-05-11T15:36:14.002Z,2.26
2017-05-11T15:38:42.518Z,2.34
2017-05-11T15:41:11.044Z,2.28
2017-05-11T15:43:39.462Z,1.80
2017-05-11T15:46:08.870Z,2.32
2017-05-11T15:48:37.429Z,1.88
2017-05-11T15:51:05.805Z,2.14
2017-05-11T15:53:34.491Z,1.74
2017-05-11T15:56:03.000Z,2.40
2017-05-11T15:58:31.406Z,1.94
2017-05-11T16:01:01.707Z,2.62
2017-05-11T16:03:30.206Z,4.48
2017-05-11T16:05:59.900Z,2.56
2017-05-11T16:08:28.577Z,2.06
2017-05-11T16:10:57.249Z,2.08
2017-05-11T16:13:25.657Z,4.02
2017-05-11T16:15:54.223Z,3.72
2017-05-11T16:18:23.513Z,2.80
2017-05-11T16:20:52.323Z,2.88
2017-05-11T16:23:21.300Z,3.16
2017-05-11T16:25:56.491Z,4.78
2017-05-11T16:28:25.236Z,2.72
2017-05-11T16:30:53.717Z,2.74
2017-05-11T16:33:22.198Z,8.52
2017-05-11T16:35:50.580Z,2.06
2017-05-11T16:38:18.884Z,2.38
2017-05-11T16:40:47.745Z,2.22
2017-05-11T16:43:16.116Z,2.54
2017-05-11T16:45:44.446Z,2.30
2017-05-11T16:48:12.804Z,2.00
2017-05-11T16:50:41.098Z,2.56
2017-05-11T16:53:09.545Z,2.58
2017-05-11T16:55:38.790Z,5.04
2017-05-11T16:58:07.117Z,11.50
2017-05-11T17:00:35.621Z,10.66
2017-05-11T17:03:04.006Z,5.68
2017-05-11T17:05:33.074Z,4.24
2017-05-11T17:08:01.383Z,7.90
2017-05-11T17:10:30.819Z,3.18
2017-05-11T17:12:59.091Z,2.58
2017-05-11T17:15:27.404Z,11.46
2017-05-11T17:17:55.884Z,6.60
2017-05-11T17:20:24.156Z,3.42
2017-05-11T17:22:52.440Z,4.18
2017-05-11T17:25:20.823Z,4.82
2017-05-11T17:27:49.249Z,4.86
2017-05-11T17:30:18.268Z,4.56
2017-05-11T17:32:46.672Z,3.42
2017-05-11T17:35:14.947Z,3.16
2017-05-11T17:37:43.223Z,3.42
2017-05-11T17:40:11.547Z,3.36
2017-05-11T17:42:40.561Z,2.90
2017-05-11T17:45:08.859Z,17.44
2017-05-11T17:47:37.190Z,9.34
2017-05-11T17:50:05.478Z,4.14
2017-05-11T17:52:33.868Z,3.48
2017-05-11T17:55:02.200Z,16.66
2017-05-11T17:57:31.219Z,7.78
2017-05-11T17:59:59.532Z,23.06
2017-05-11T18:02:28.683Z,8.04
2017-05-11T18:04:56.999Z,3.14
2017-05-11T18:07:25.381Z,6.60
2017-05-11T18:09:53.713Z,5.50
2017-05-11T18:12:22.040Z,7.06
2017-05-11T18:14:50.316Z,3.78
2017-05-11T18:17:18.635Z,5.30
2017-05-11T18:19:47.651Z,3.18
2017-05-11T18:22:15.961Z,2.58
2017-05-11T18:24:44.272Z,3.80
2017-05-11T18:27:12.544Z,4.50
2017-05-11T18:29:40.898Z,3.64
2017-05-11T18:32:10.461Z,4.20
2017-05-11T18:34:38.799Z,3.60
2017-05-11T18:37:07.070Z,4.02
2017-05-11T18:39:35.367Z,4.46
2017-05-11T18:42:03.675Z,3.44
2017-05-11T18:44:31.995Z,3.66
2017-05-11T18:47:00.324Z,2.58
2017-05-11T18:49:29.546Z,3.64
2017-05-11T18:51:57.912Z,3.22
2017-05-11T18:54:26.221Z,3.62
2017-05-11T18:56:55.284Z,3.12
2017-05-11T18:59:24.298Z,2.92
2017-05-11T19:01:52.574Z,2.58
2017-05-11T19:04:21.072Z,3.42
2017-05-11T19:06:49.347Z,3.76
2017-05-11T19:09:18.364Z,2.50
2017-05-11T19:11:47.800Z,2.92
2017-05-11T19:14:16.077Z,2.58
2017-05-11T19:16:44.353Z,2.74
2017-05-11T19:19:13.038Z,3.62
2017-05-11T19:21:41.308Z,2.82
2017-05-11T19:24:09.793Z,2.96
2017-05-11T19:26:38.196Z,3.02
2017-05-11T19:29:06.471Z,2.84
2017-05-11T19:31:34.744Z,2.74
2017-05-11T19:34:03.304Z,2.74
2017-05-11T19:36:31.688Z,3.34
2017-05-11T19:39:00.066Z,3.70
2017-05-11T19:41:28.445Z,3.12
2017-05-11T19:43:56.777Z,3.30
2017-05-11T19:46:25.797Z,3.28
2017-05-11T19:48:54.100Z,2.76
2017-05-11T19:51:22.401Z,3.58
2017-05-11T19:53:50.748Z,2.78
2017-05-11T19:56:19.133Z,2.50
2017-05-11T19:58:47.722Z,3.02
2017-05-11T20:01:15.999Z,2.74
2017-05-11T20:03:44.369Z,2.40
2017-05-11T20:06:12.681Z,4.66
2017-05-11T20:08:40.964Z,2.44
2017-05-11T20:11:09.305Z,2.48
2017-05-11T20:13:37.684Z,2.70
2017-05-11T20:16:05.957Z,3.12
2017-05-11T20:18:34.344Z,2.32
2017-05-11T20:21:02.821Z,3.52
2017-05-11T20:23:31.100Z,4.14
2017-05-11T20:25:59.459Z,3.22
2017-05-11T20:28:27.740Z,2.58
2017-05-11T20:30:56.231Z,2.60
2017-05-11T20:33:24.511Z,4.56
2017-05-11T20:35:52.896Z,4.30
2017-05-11T20:38:21.404Z,2.72
2017-05-11T20:40:50.420Z,2.62
2017-05-11T20:43:18.698Z,2.92
2017-05-11T20:45:47.023Z,3.30
2017-05-11T20:48:15.295Z,3.64
2017-05-11T20:50:44.360Z,2.72
2017-05-11T20:53:12.722Z,4.20
2017-05-11T20:55:41.001Z,3.12
2017-05-11T20:58:09.761Z,2.40
2017-05-11T21:00:38.039Z,2.66
2017-05-11T21:03:06.415Z,2.12
2017-05-11T21:05:35.074Z,3.52
2017-05-11T21:08:03.360Z,2.24
2017-05-11T21:10:31.645Z,3.18
2017-05-11T21:13:00.141Z,2.12
2017-05-11T21:15:28.445Z,2.42
2017-05-11T21:17:56.737Z,13.18
2017-05-11T21:20:25.037Z,12.96
2017-05-11T21:22:53.392Z,22.12
2017-05-11T21:25:21.867Z,9.56
2017-05-11T21:27:50.152Z,46.32
2017-05-11T21:30:18.433Z,56.76
2017-05-11T21:32:46.771Z,31.64
2017-05-11T21:35:15.061Z,9.72
2017-05-11T21:37:44.089Z,8.12
2017-05-11T21:40:12.400Z,9.78
2017-05-11T21:42:40.699Z,6.52
2017-05-11T21:45:09.037Z,5.14
2017-05-11T21:47:37.841Z,5.26
2017-05-11T21:50:06.313Z,3.14
2017-05-11T21:52:35.328Z,3.86
2017-05-11T21:55:03.631Z,4.06
2017-05-11T21:57:31.921Z,2.40
2017-05-11T22:00:00.221Z,4.00
2017-05-11T22:02:28.751Z,3.34
2017-05-11T22:04:57.164Z,3.33
2017-05-11T22:07:25.544Z,3.32
2017-05-11T22:09:54.019Z,4.14
2017-05-11T22:12:22.305Z,8.24
2017-05-11T22:14:50.591Z,4.55
2017-05-11T22:17:18.913Z,8.26
2017-05-11T22:19:47.193Z,5.92
2017-05-11T22:22:15.472Z,17.68
2017-05-11T22:24:44.198Z,9.84
2017-05-11T22:27:12.477Z,7.84
2017-05-11T22:29:40.753Z,5.08
2017-05-11T22:32:09.072Z,3.84
2017-05-11T22:34:38.084Z,5.06
2017-05-11T22:37:06.355Z,7.08
2017-05-11T22:39:34.660Z,4.36
2017-05-11T22:42:02.971Z,6.50
2017-05-11T22:44:31.243Z,3.24
2017-05-11T22:46:59.567Z,5.83
2017-05-11T22:49:27.849Z,3.25
2017-05-11T22:51:56.125Z,4.42
2017-05-11T22:54:24.495Z,2.48
2017-05-11T22:56:53.508Z,3.30
2017-05-11T22:59:21.791Z,2.40
2017-05-11T23:01:50.115Z,3.92
2017-05-11T23:04:18.399Z,11.77
2017-05-11T23:06:46.667Z,7.92
2017-05-11T23:09:14.968Z,6.12
2017-05-11T23:11:44.013Z,4.56
2017-05-11T23:14:12.297Z,5.00
2017-05-11T23:16:40.705Z,7.22
2017-05-11T23:19:09.727Z,6.22
2017-05-11T23:21:37.999Z,3.06
2017-05-11T23:24:06.626Z,3.68
2017-05-11T23:26:34.902Z,2.50
2017-05-11T23:29:03.177Z,2.94
2017-05-11T23:31:31.592Z,2.75
2017-05-11T23:33:59.872Z,4.94
2017-05-11T23:36:28.887Z,4.78
2017-05-11T23:38:57.204Z,6.56
2017-05-11T23:41:25.487Z,6.38
2017-05-11T23:43:53.864Z,5.13
2017-05-11T23:46:22.196Z,9.55
2017-05-11T23:48:50.560Z,6.82
2017-05-11T23:51:19.576Z,2.68
2017-05-11T23:53:48.623Z,2.54
2017-05-11T23:56:16.901Z,6.20
2017-05-11T23:58:45.171Z,5.38
